createdAt,value
2024-02-12T00:00:16.595Z,29.845000
2024-02-12T00:05:16.842Z,29.850000
2024-02-12T00:10:16.503Z,29.852000
2024-02-12T00:15:16.637Z,29.853000
2024-02-12T00:20:16.681Z,29.853000
2024-02-12T00:25:16.659Z,29.853000
2024-02-12T00:30:16.603Z,29.852000
2024-02-12T00:35:16.702Z,29.856000
2024-02-12T00:40:16.598Z,29.853000
2024-02-12T00:45:16.931Z,29.852000
2024-02-12T00:50:16.842Z,29.856000
2024-02-12T00:55:16.687Z,29.847000
2024-02-12T01:00:16.729Z,29.850000
2024-02-12T01:05:16.825Z,29.850000
2024-02-12T01:10:16.663Z,29.852000
2024-02-12T01:15:16.693Z,29.855000
2024-02-12T01:20:16.859Z,29.855000
2024-02-12T01:25:16.734Z,29.857000
2024-02-12T01:30:16.714Z,29.861000
2024-02-12T01:35:16.760Z,29.861000
2024-02-12T01:40:16.818Z,29.855000
2024-02-12T01:45:17.164Z,29.857000
2024-02-12T01:50:17.362Z,29.855000
2024-02-12T01:55:16.792Z,29.858000
2024-02-12T02:00:16.977Z,29.866000
2024-02-12T02:05:16.952Z,29.867000
2024-02-12T02:10:16.941Z,29.863000
2024-02-12T02:15:16.865Z,29.863000
2024-02-12T02:20:16.905Z,29.858000
2024-02-12T02:25:16.834Z,29.859000
2024-02-12T02:30:18.313Z,29.865000
2024-02-12T02:35:17.097Z,29.862000
2024-02-12T02:40:16.928Z,29.861000
2024-02-12T02:45:17.338Z,29.864000
2024-02-12T02:50:16.937Z,29.864000
2024-02-12T02:55:16.884Z,29.865000
2024-02-12T03:00:16.921Z,29.865000
2024-02-12T03:05:16.999Z,29.871000
2024-02-12T03:10:16.961Z,29.869000
2024-02-12T03:15:17.190Z,29.866000
2024-02-12T03:20:17.008Z,29.867000
2024-02-12T03:25:17.485Z,29.867000
2024-02-12T03:30:17.261Z,29.869000
2024-02-12T03:35:17.098Z,29.867000
2024-02-12T03:40:16.966Z,29.869000
2024-02-12T03:45:17.185Z,29.868000
2024-02-12T03:50:17.104Z,29.867000
2024-02-12T03:55:17.088Z,29.868000
2024-02-12T04:00:17.052Z,29.869000
2024-02-12T04:05:17.506Z,29.875000
2024-02-12T04:10:17.196Z,29.872000
2024-02-12T04:15:17.340Z,29.876000
2024-02-12T04:20:17.165Z,29.878000
2024-02-12T04:25:17.154Z,29.880000
2024-02-12T04:30:17.188Z,29.879000
2024-02-12T04:35:17.172Z,29.875000
2024-02-12T04:40:17.148Z,29.874000
2024-02-12T04:45:17.271Z,29.874000
2024-02-12T04:50:17.158Z,29.874000
2024-02-12T04:55:17.226Z,29.878000
2024-02-12T05:00:16.196Z,29.878000
2024-02-12T05:05:16.235Z,29.879000
2024-02-12T05:10:16.375Z,29.883000
2024-02-12T05:15:16.276Z,29.886000
2024-02-12T05:20:17.797Z,29.884000
2024-02-12T05:25:16.198Z,29.884000
2024-02-12T05:30:16.351Z,29.886000
2024-02-12T05:35:16.295Z,29.887000
2024-02-12T05:40:16.283Z,29.891000
2024-02-12T05:45:16.340Z,29.894000
2024-02-12T05:50:16.328Z,29.895000
2024-02-12T05:55:16.340Z,29.891000
2024-02-12T06:00:16.372Z,29.893000
2024-02-12T06:05:16.494Z,29.894000
2024-02-12T06:10:16.474Z,29.892000
2024-02-12T06:15:16.337Z,29.897000
2024-02-12T06:20:16.419Z,29.893000
2024-02-12T06:25:16.521Z,29.893000
2024-02-12T06:30:16.404Z,29.893000
2024-02-12T06:35:16.555Z,29.890000
2024-02-12T06:40:16.462Z,29.889000
2024-02-12T06:45:16.668Z,29.885000
2024-02-12T06:50:16.455Z,29.887000
2024-02-12T06:55:16.369Z,29.886000
2024-02-12T07:00:16.423Z,29.885000
2024-02-12T07:05:16.609Z,29.885000
2024-02-12T07:10:16.654Z,29.883000
2024-02-12T07:15:16.525Z,29.885000
2024-02-12T07:20:16.563Z,29.883000
2024-02-12T07:25:16.894Z,29.880000
2024-02-12T07:30:16.519Z,29.881000
2024-02-12T07:35:16.724Z,29.877000
2024-02-12T07:40:16.523Z,29.876000
2024-02-12T07:45:16.551Z,29.880000
2024-02-12T07:50:16.601Z,29.881000
2024-02-12T07:55:16.584Z,29.876000
2024-02-12T08:00:17.006Z,29.875000
2024-02-12T08:05:17.191Z,29.873000
2024-02-12T08:10:16.541Z,29.876000
2024-02-12T08:15:16.636Z,29.876000
2024-02-12T08:20:16.732Z,29.877000
2024-02-12T08:25:22.183Z,29.875000
2024-02-12T08:30:16.629Z,29.873000
2024-02-12T08:35:16.797Z,29.875000
2024-02-12T08:40:16.671Z,29.873000
2024-02-12T08:45:16.787Z,29.874000
2024-02-12T08:50:17.162Z,29.878000
2024-02-12T08:55:16.662Z,29.874000
2024-02-12T09:00:16.733Z,29.878000
2024-02-12T09:05:17.123Z,29.876000
2024-02-12T09:10:18.181Z,29.878000
2024-02-12T09:15:16.621Z,29.886000
2024-02-12T09:20:16.978Z,29.888000
2024-02-12T09:25:16.845Z,29.891000
2024-02-12T09:30:16.654Z,29.897000
2024-02-12T09:35:16.891Z,29.897000
2024-02-12T09:40:17.523Z,29.896000
2024-02-12T09:45:16.777Z,29.891000
2024-02-12T09:50:17.148Z,29.889000
2024-02-12T09:55:16.876Z,29.889000
2024-02-12T10:00:16.751Z,29.888000
2024-02-12T10:05:17.101Z,29.890000
2024-02-12T10:10:16.939Z,29.889000
2024-02-12T10:15:16.810Z,29.889000
2024-02-12T10:20:16.868Z,29.889000
2024-02-12T10:25:17.007Z,29.887000
2024-02-12T10:30:17.032Z,29.890000
2024-02-12T10:35:17.108Z,29.892000
2024-02-12T10:40:17.055Z,29.889000
2024-02-12T10:45:17.059Z,29.892000
2024-02-12T10:50:16.951Z,29.889000
2024-02-12T10:55:16.896Z,29.888000
2024-02-12T11:00:17.091Z,29.891000
2024-02-12T11:05:17.022Z,29.891000
2024-02-12T11:10:17.059Z,29.890000
2024-02-12T11:15:17.042Z,29.893000
2024-02-12T11:20:17.237Z,29.896000
2024-02-12T11:25:21.959Z,29.899000
2024-02-12T11:30:17.222Z,29.904000
2024-02-12T11:35:17.036Z,29.901000
2024-02-12T11:40:16.974Z,29.905000
2024-02-12T11:45:17.023Z,29.904000
2024-02-12T11:50:17.067Z,29.909000
2024-02-12T11:55:17.043Z,29.910000
2024-02-12T12:00:17.043Z,29.912000
2024-02-12T12:05:17.207Z,29.918000
2024-02-12T12:10:17.050Z,29.921000
2024-02-12T12:15:17.235Z,29.922000
2024-02-12T12:20:17.383Z,29.925000
2024-02-12T12:25:17.184Z,29.924000
2024-02-12T12:30:17.168Z,29.920000
2024-02-12T12:35:17.291Z,29.920000
2024-02-12T12:40:17.295Z,29.921000
2024-02-12T12:45:17.356Z,29.922000
2024-02-12T12:50:17.407Z,29.917000
2024-02-12T12:55:17.283Z,29.914000
2024-02-12T13:00:17.181Z,29.915000
2024-02-12T13:05:17.383Z,29.912000
2024-02-12T13:10:17.438Z,29.914000
2024-02-12T13:15:17.429Z,29.915000
2024-02-12T13:20:17.287Z,29.917000
2024-02-12T13:25:17.276Z,29.916000
2024-02-12T13:30:17.385Z,29.919000
2024-02-12T13:35:17.502Z,29.922000
2024-02-12T13:40:17.448Z,29.926000
2024-02-12T13:45:17.443Z,29.924000
2024-02-12T13:50:17.543Z,29.922000
2024-02-12T13:55:17.592Z,29.919000
2024-02-12T14:00:35.330Z,29.916000
2024-02-12T14:05:17.549Z,29.915000
2024-02-12T14:10:17.353Z,29.911000
2024-02-12T14:15:59.641Z,29.910000
2024-02-12T14:20:17.396Z,29.909000
2024-02-12T14:25:17.371Z,29.911000
2024-02-12T14:30:17.363Z,29.909000
2024-02-12T14:35:17.581Z,29.908000
2024-02-12T14:40:17.389Z,29.901000
2024-02-12T14:45:17.398Z,29.899000
2024-02-12T14:50:17.638Z,29.902000
2024-02-12T14:55:19.108Z,29.903000
2024-02-12T15:00:17.446Z,29.906000
2024-02-12T15:05:17.697Z,29.908000
2024-02-12T15:10:17.573Z,29.909000
2024-02-12T15:15:15.439Z,29.916000
2024-02-12T15:20:15.520Z,29.920000
2024-02-12T15:25:17.259Z,29.922000
2024-02-12T15:30:15.601Z,29.926000
2024-02-12T15:35:16.282Z,29.928000
2024-02-12T15:40:15.698Z,29.930000
2024-02-12T15:45:15.549Z,29.933000
2024-02-12T15:50:15.810Z,29.932000
2024-02-12T15:55:15.717Z,29.926000
2024-02-12T16:00:15.917Z,29.921000
2024-02-12T16:05:17.065Z,29.917000
2024-02-12T16:10:15.654Z,29.905000
2024-02-12T16:15:15.755Z,29.903000
2024-02-12T16:20:15.717Z,29.898000
2024-02-12T16:25:15.769Z,29.890000
2024-02-12T16:30:15.703Z,29.886000
2024-02-12T16:35:17.247Z,29.883000
2024-02-12T16:40:15.738Z,29.881000
2024-02-12T16:45:15.755Z,29.877000
2024-02-12T16:50:16.167Z,29.877000
2024-02-12T16:55:15.728Z,29.874000
2024-02-12T17:00:15.645Z,29.873000
2024-02-12T17:05:15.993Z,29.874000
2024-02-12T17:10:16.408Z,29.873000
2024-02-12T17:15:15.872Z,29.867000
2024-02-12T17:20:15.751Z,29.866000
2024-02-12T17:25:15.767Z,29.858000
2024-02-12T17:30:15.860Z,29.851000
2024-02-12T17:35:15.844Z,29.846000
2024-02-12T17:40:15.757Z,29.837000
2024-02-12T17:45:16.014Z,29.836000
2024-02-12T17:50:15.837Z,29.837000
2024-02-12T17:55:15.789Z,29.838000
2024-02-12T18:00:15.948Z,29.842000
2024-02-12T18:05:16.016Z,29.844000
2024-02-12T18:10:15.853Z,29.843000
2024-02-12T18:15:15.853Z,29.843000
2024-02-12T18:20:15.949Z,29.842000
2024-02-12T18:25:16.235Z,29.848000
2024-02-12T18:30:15.979Z,29.843000
2024-02-12T18:35:15.950Z,29.839000
2024-02-12T18:40:16.046Z,29.832000
2024-02-12T18:45:16.042Z,29.830000
2024-02-12T18:50:16.305Z,29.828000
2024-02-12T18:55:17.734Z,29.824000
2024-02-12T19:00:16.011Z,29.820000
2024-02-12T19:05:16.158Z,29.805000
2024-02-12T19:10:15.908Z,29.808000
2024-02-12T19:15:16.283Z,29.804000
2024-02-12T19:20:16.616Z,29.808000
2024-02-12T19:25:16.018Z,29.806000
2024-02-12T19:30:16.065Z,29.811000
2024-02-12T19:35:16.256Z,29.813000
2024-02-12T19:40:17.298Z,29.825000
2024-02-12T19:45:16.326Z,29.823000
2024-02-12T19:50:16.051Z,29.824000
2024-02-12T19:55:16.527Z,29.829000
2024-02-12T20:00:16.099Z,29.819000
2024-02-12T20:05:16.270Z,29.822000
2024-02-12T20:10:16.100Z,29.824000
2024-02-12T20:15:16.107Z,29.827000
2024-02-12T20:20:16.253Z,29.831000
2024-02-12T20:25:16.147Z,29.833000
2024-02-12T20:30:16.180Z,29.831000
2024-02-12T20:35:16.697Z,29.836000
2024-02-12T20:40:16.689Z,29.836000
2024-02-12T20:45:16.192Z,29.833000
2024-02-12T20:50:16.269Z,29.831000
2024-02-12T20:55:16.521Z,29.834000
2024-02-12T21:00:16.629Z,29.834000
2024-02-12T21:05:16.339Z,29.836000
2024-02-12T21:10:16.239Z,29.834000
2024-02-12T21:15:16.290Z,29.834000
2024-02-12T21:20:16.290Z,29.832000
2024-02-12T21:25:16.278Z,29.834000
2024-02-12T21:30:16.190Z,29.830000
2024-02-12T21:35:16.280Z,29.832000
2024-02-12T21:40:17.067Z,29.828000
2024-02-12T21:45:16.356Z,29.820000
2024-02-12T21:50:16.347Z,29.821000
2024-02-12T21:55:16.426Z,29.822000
2024-02-12T22:00:16.316Z,29.817000
2024-02-12T22:05:16.538Z,29.820000
2024-02-12T22:10:16.336Z,29.824000
2024-02-12T22:15:16.303Z,29.821000
2024-02-12T22:20:16.482Z,29.810000
2024-02-12T22:25:16.368Z,29.812000
2024-02-12T22:30:16.440Z,29.817000
2024-02-12T22:35:16.987Z,29.828000
2024-02-12T22:40:16.430Z,29.824000
2024-02-12T22:45:16.444Z,29.834000
2024-02-12T22:50:16.773Z,29.833000
2024-02-12T22:55:16.426Z,29.840000
2024-02-12T23:00:16.640Z,29.839000
2024-02-12T23:05:16.498Z,29.835000
2024-02-12T23:10:16.532Z,29.832000
2024-02-12T23:15:16.526Z,29.831000
2024-02-12T23:20:16.564Z,29.834000
2024-02-12T23:25:17.167Z,29.837000
2024-02-12T23:30:16.493Z,29.841000
2024-02-12T23:35:16.607Z,29.845000
2024-02-12T23:40:16.604Z,29.850000
2024-02-12T23:45:16.696Z,29.855000
2024-02-12T23:50:16.763Z,29.861000
2024-02-12T23:55:16.650Z,29.855000
